Time;durP1;ratioP1;P1;durP2;ratioP2;P2;SDS_P1;SDS_P2;PMS_P1;PMS_P2;Temp;Humidity;BMP_temperature;BMP_pressure;BME280_temperature;BME280_humidity;BME280_pressure;Samples;Min_cycle;Max_cycle;Signal;HPM_P1;HPM_P2
2023/03/16 00:02:02;;;;;;;;;;;;;;;4.25;80.59082;101811.6;;;;-75
2023/03/16 00:04:10;;;;;;;7.9;3.7;;;;;;;;;;;;;-75
2023/03/16 00:07:00;;;;;;;;;;;;;;;4.27;80.50684;101801.5;;;;-74
2023/03/16 00:12:01;;;;;;;;;;;;;;;4.27;80.51758;101793.9;;;;-74
2023/03/16 00:17:01;;;;;;;;;;;;;;;4.28;80.43262;101791.8;;;;-74
2023/03/16 00:22:01;;;;;;;;;;;;;;;4.26;80.625;101782.5;;;;-74
2023/03/16 00:27:01;;;;;;;;;;;;;;;4.28;80.4541;101777.9;;;;-73
2023/03/16 00:32:05;;;;;;;;;;;;;;;4.29;80.42285;101782.7;;;;-74
2023/03/16 00:34:14;;;;;;;6.6;3.5;;;;;;;;;;;;;-74
2023/03/16 00:37:01;;;;;;;;;;;;;;;4.29;80.48828;101779.9;;;;-74
2023/03/16 00:42:01;;;;;;;;;;;;;;;4.3;80.51172;101770.6;;;;-75
2023/03/16 00:47:02;;;;;;;;;;;;;;;4.28;80.55176;101762.2;;;;-75
2023/03/16 00:52:01;;;;;;;;;;;;;;;4.32;80.43945;101747.6;;;;-74
2023/03/16 00:57:01;;;;;;;;;;;;;;;4.31;80.52441;101746.8;;;;-73
2023/03/16 01:02:03;;;;;;;;;;;;;;;4.32;80.46289;101748.9;;;;-74
2023/03/16 01:04:15;;;;;;;8.4;3.4;;;;;;;;;;;;;-73
2023/03/16 01:07:01;;;;;;;;;;;;;;;4.35;80.55469;101741.6;;;;-74
2023/03/16 01:12:02;;;;;;;;;;;;;;;4.36;80.5127;101739.9;;;;-75
2023/03/16 01:17:04;;;;;;;;;;;;;;;4.37;80.55859;101718.7;;;;-75
2023/03/16 01:22:01;;;;;;;;;;;;;;;4.38;80.53809;101710.4;;;;-74
2023/03/16 01:27:01;;;;;;;;;;;;;;;4.41;80.52148;101707.6;;;;-74
2023/03/16 01:32:01;;;;;;;;;;;;;;;4.4;80.62891;101700;;;;-74
2023/03/16 01:34:17;;;;;;;7;3.5;;;;;;;;;;;;;-73
2023/03/16 01:37:01;;;;;;;;;;;;;;;4.43;80.55762;101689.7;;;;-75
2023/03/16 01:42:01;;;;;;;;;;;;;;;4.44;80.61328;101677.9;;;;-74
2023/03/16 01:47:01;;;;;;;;;;;;;;;4.46;80.72656;101668.3;;;;-74
2023/03/16 01:52:06;;;;;;;;;;;;;;;4.47;80.84766;101669.4;;;;-75
2023/03/16 01:57:07;;;;;;;;;;;;;;;4.48;80.76367;101660.9;;;;-73
2023/03/16 02:02:05;;;;;;;;;;;;;;;4.51;80.78027;101655.8;;;;-74
2023/03/16 02:04:18;;;;;;;6.6;3.3;;;;;;;;;;;;;-75
2023/03/16 02:07:01;;;;;;;;;;;;;;;4.51;80.94238;101647.5;;;;-73
2023/03/16 02:12:01;;;;;;;;;;;;;;;4.51;81.04004;101640.8;;;;-74
2023/03/16 02:17:05;;;;;;;;;;;;;;;4.53;81.20898;101637.6;;;;-74
2023/03/16 02:22:05;;;;;;;;;;;;;;;4.56;81.03027;101632.3;;;;-74
2023/03/16 02:27:04;;;;;;;;;;;;;;;4.57;81.15234;101628.1;;;;-74
2023/03/16 02:32:12;;;;;;;;;;;;;;;;;;;;;
2023/03/16 02:34:16;;;;;;;7.6;3.4;;;;;;;;;;;;;-75
2023/03/16 02:37:02;;;;;;;;;;;;;;;4.59;81.20117;101628.6;;;;-73
2023/03/16 02:42:01;;;;;;;;;;;;;;;4.6;81.36426;101621.8;;;;-73
2023/03/16 02:47:03;;;;;;;;;;;;;;;4.63;81.64258;101614.6;;;;-74
2023/03/16 02:52:01;;;;;;;;;;;;;;;4.61;81.60645;101612.6;;;;-74
2023/03/16 02:57:01;;;;;;;;;;;;;;;4.65;82.10547;101604;;;;-75
2023/03/16 03:02:08;;;;;;;;;;;;;;;4.65;81.98535;101593.5;;;;-73
2023/03/16 03:04:13;;;;;;;7.8;3.6;;;;;;;;;;;;;-74
2023/03/16 03:07:03;;;;;;;;;;;;;;;4.71;82.26855;101595.5;;;;-75
2023/03/16 03:12:00;;;;;;;;;;;;;;;4.7;82.04883;101596.7;;;;-74
2023/03/16 03:17:03;;;;;;;;;;;;;;;4.68;82.16406;101589.8;;;;-75
2023/03/16 03:22:05;;;;;;;;;;;;;;;4.68;82.4707;101589;;;;-74
2023/03/16 03:27:04;;;;;;;;;;;;;;;4.69;82.54883;101581.2;;;;-74
2023/03/16 03:32:00;;;;;;;;;;;;;;;4.68;83.14648;101580.8;;;;-75
2023/03/16 03:34:17;;;;;;;7.4;3.6;;;;;;;;;;;;;-73
2023/03/16 03:37:01;;;;;;;;;;;;;;;4.66;83;101573.5;;;;-74
2023/03/16 03:42:01;;;;;;;;;;;;;;;4.66;82.94531;101579.3;;;;-74
2023/03/16 03:47:01;;;;;;;;;;;;;;;4.66;83.80664;101575.4;;;;-75
2023/03/16 03:52:03;;;;;;;;;;;;;;;4.64;83.04004;101566.6;;;;-74
2023/03/16 03:57:01;;;;;;;;;;;;;;;4.66;83.68652;101557.3;;;;-75
2023/03/16 04:02:01;;;;;;;;;;;;;;;4.64;83.37793;101552.2;;;;-74
2023/03/16 04:04:18;;;;;;;8.2;4.3;;;;;;;;;;;;;-74
2023/03/16 04:07:03;;;;;;;;;;;;;;;4.67;83.81934;101552.7;;;;-73
2023/03/16 04:12:01;;;;;;;;;;;;;;;4.67;83.94141;101558;;;;-74
2023/03/16 04:17:03;;;;;;;;;;;;;;;4.68;84.42285;101548.1;;;;-75
2023/03/16 04:22:03;;;;;;;;;;;;;;;4.7;84.7207;101534.4;;;;-73
2023/03/16 04:27:02;;;;;;;;;;;;;;;4.71;84.20996;101524.2;;;;-73
2023/03/16 04:32:01;;;;;;;;;;;;;;;4.74;84.92383;101511.4;;;;-73
2023/03/16 04:34:15;;;;;;;9.4;4;;;;;;;;;;;;;-74
2023/03/16 04:37:01;;;;;;;;;;;;;;;4.74;84.78223;101503.6;;;;-74
2023/03/16 04:42:05;;;;;;;;;;;;;;;4.75;84.88184;101503;;;;-74
2023/03/16 04:47:01;;;;;;;;;;;;;;;4.77;85.1582;101509.3;;;;-74
2023/03/16 04:52:01;;;;;;;;;;;;;;;4.77;84.99609;101514.5;;;;-74
2023/03/16 04:57:02;;;;;;;;;;;;;;;4.78;84.75879;101511.9;;;;-74
2023/03/16 05:02:03;;;;;;;;;;;;;;;4.79;84.97852;101516;;;;-73
2023/03/16 05:04:21;;;;;;;8;3.8;;;;;;;;;;;;;-74
2023/03/16 05:07:01;;;;;;;;;;;;;;;4.81;85.49414;101513;;;;-74
2023/03/16 05:12:01;;;;;;;;;;;;;;;4.83;85.24707;101505.4;;;;-74
2023/03/16 05:17:02;;;;;;;;;;;;;;;4.84;85.23926;101502.4;;;;-74
2023/03/16 05:22:02;;;;;;;;;;;;;;;4.86;85.66602;101497.2;;;;-75
2023/03/16 05:27:02;;;;;;;;;;;;;;;4.86;85.71191;101492;;;;-75
2023/03/16 05:32:03;;;;;;;;;;;;;;;4.88;86.32422;101487.8;;;;-74
2023/03/16 05:34:16;;;;;;;7.5;3.3;;;;;;;;;;;;;-75
2023/03/16 05:37:01;;;;;;;;;;;;;;;4.88;86.94531;101475.5;;;;-74
2023/03/16 05:42:01;;;;;;;;;;;;;;;4.87;86.87988;101469.4;;;;-74
2023/03/16 05:47:03;;;;;;;;;;;;;;;4.87;86.92383;101466.8;;;;-75
2023/03/16 05:52:00;;;;;;;;;;;;;;;4.87;87.45508;101464.4;;;;-74
2023/03/16 05:57:01;;;;;;;;;;;;;;;4.87;87.29395;101462.3;;;;-75
2023/03/16 06:02:10;;;;;;;;;;;;;;;4.88;87.77344;101449.8;;;;-75
2023/03/16 06:04:17;;;;;;;6.3;2.6;;;;;;;;;;;;;-74
2023/03/16 06:07:01;;;;;;;;;;;;;;;4.88;88.13281;101449.1;;;;-75
2023/03/16 06:12:01;;;;;;;;;;;;;;;4.89;88.32227;101447.7;;;;-75
2023/03/16 06:17:01;;;;;;;;;;;;;;;4.89;88.41992;101456;;;;-74
2023/03/16 06:22:02;;;;;;;;;;;;;;;4.89;88.65918;101453.3;;;;-75
2023/03/16 06:27:04;;;;;;;;;;;;;;;4.89;88.08203;101448.8;;;;-74
2023/03/16 06:32:03;;;;;;;;;;;;;;;4.92;89.38379;101445.7;;;;-75
2023/03/16 06:34:21;;;;;;;7;2.5;;;;;;;;;;;;;-75
2023/03/16 06:37:01;;;;;;;;;;;;;;;4.94;89.33301;101451.5;;;;-75
2023/03/16 06:42:03;;;;;;;;;;;;;;;4.93;89.7666;101438.6;;;;-75
2023/03/16 06:47:01;;;;;;;;;;;;;;;4.94;89.91211;101429.1;;;;-75
2023/03/16 06:52:02;;;;;;;;;;;;;;;4.95;89.97949;101421;;;;-74
2023/03/16 06:57:03;;;;;;;;;;;;;;;4.99;90.12891;101434.1;;;;-74
2023/03/16 07:02:01;;;;;;;;;;;;;;;5.01;89.89258;101434.4;;;;-74
2023/03/16 07:04:20;;;;;;;4.5;1.9;;;;;;;;;;;;;-73
2023/03/16 07:07:02;;;;;;;;;;;;;;;5.05;90.20508;101424;;;;-74
2023/03/16 07:12:03;;;;;;;;;;;;;;;5.09;89.99512;101425.2;;;;-75
2023/03/16 07:17:01;;;;;;;;;;;;;;;5.13;90.03711;101425.2;;;;-74
2023/03/16 07:22:03;;;;;;;;;;;;;;;5.16;89.8252;101433.1;;;;-74
2023/03/16 07:27:04;;;;;;;;;;;;;;;5.18;89.5127;101432;;;;-73
2023/03/16 07:32:01;;;;;;;;;;;;;;;5.2;89.21387;101422.5;;;;-75
2023/03/16 07:34:18;;;;;;;4.4;1.9;;;;;;;;;;;;;-77
2023/03/16 07:37:00;;;;;;;;;;;;;;;5.24;89.28809;101417.8;;;;-75
2023/03/16 07:42:01;;;;;;;;;;;;;;;5.26;89.24609;101421.3;;;;-75
2023/03/16 07:47:01;;;;;;;;;;;;;;;5.26;89.55176;101426.3;;;;-74
2023/03/16 07:52:01;;;;;;;;;;;;;;;5.27;89.41406;101415.7;;;;-74
2023/03/16 07:57:01;;;;;;;;;;;;;;;5.31;89.39941;101414.8;;;;-75
2023/03/16 08:02:01;;;;;;;;;;;;;;;5.37;89.71777;101414.3;;;;-74
2023/03/16 08:04:19;;;;;;;3.4;1.7;;;;;;;;;;;;;-75
2023/03/16 08:07:01;;;;;;;;;;;;;;;5.41;89.37402;101411.7;;;;-74
2023/03/16 08:12:01;;;;;;;;;;;;;;;5.46;89.17871;101410.6;;;;-75
2023/03/16 08:17:03;;;;;;;;;;;;;;;5.5;89.02441;101417.8;;;;-75
2023/03/16 08:22:01;;;;;;;;;;;;;;;5.53;88.65918;101412.3;;;;-75
2023/03/16 08:27:04;;;;;;;;;;;;;;;5.6;88.24805;101423.8;;;;-74
2023/03/16 08:32:08;;;;;;;;;;;;;;;5.65;87.91992;101419.6;;;;-74
2023/03/16 08:34:20;;;;;;;4.9;1.8;;;;;;;;;;;;;-73
2023/03/16 08:37:03;;;;;;;;;;;;;;;5.71;87.65918;101423.6;;;;-75
2023/03/16 08:42:01;;;;;;;;;;;;;;;5.8;87.2627;101412.2;;;;-74
2023/03/16 08:47:02;;;;;;;;;;;;;;;5.88;86.68945;101409.9;;;;-74
2023/03/16 08:52:01;;;;;;;;;;;;;;;5.94;86.375;101401.5;;;;-73
2023/03/16 08:57:04;;;;;;;;;;;;;;;6.01;86.28906;101399.1;;;;-75
2023/03/16 09:02:06;;;;;;;;;;;;;;;6.08;86.00684;101394.7;;;;-74
2023/03/16 09:04:22;;;;;;;3.7;1.8;;;;;;;;;;;;;-74
2023/03/16 09:07:00;;;;;;;;;;;;;;;6.15;85.33398;101404.5;;;;-74
2023/03/16 09:12:01;;;;;;;;;;;;;;;6.23;85.11816;101386.3;;;;-74
2023/03/16 09:17:06;;;;;;;;;;;;;;;6.29;84.86816;101386;;;;-74
2023/03/16 09:22:09;;;;;;;;;;;;;;;6.36;84.56348;101389.7;;;;-73
2023/03/16 09:27:00;;;;;;;;;;;;;;;6.4;84.47461;101385.6;;;;-74
2023/03/16 09:32:11;;;;;;;;;;;;;;;6.39;84.10059;101377.8;;;;-74
2023/03/16 09:34:22;;;;;;;5.6;2.2;;;;;;;;;;;;;-73
2023/03/16 09:37:03;;;;;;;;;;;;;;;6.45;84.23145;101380.5;;;;-74
2023/03/16 09:42:04;;;;;;;;;;;;;;;6.49;84.09766;101382.7;;;;-74
2023/03/16 09:47:02;;;;;;;;;;;;;;;6.65;83.74414;101375.8;;;;-75
2023/03/16 09:52:12;;;;;;;;;;;;;;;6.85;83.29199;101367.7;;;;-75
2023/03/16 09:57:02;;;;;;;;;;;;;;;7.17;82.28711;101361.9;;;;-75
2023/03/16 10:02:24;;;;;;;;;;;;;;;7.57;82.08887;101371.5;;;;-73
2023/03/16 10:04:26;;;;;;;4.1;1.9;;;;;;;;;;;;;-74
2023/03/16 10:07:07;;;;;;;;;;;;;;;7.76;81.5;101357.4;;;;-74
2023/03/16 10:12:03;;;;;;;;;;;;;;;7.86;80.13184;101356.5;;;;-74
2023/03/16 10:17:04;;;;;;;;;;;;;;;8.1;79.71289;101357.8;;;;-74
2023/03/16 10:22:04;;;;;;;;;;;;;;;8.34;79.25195;101351.8;;;;-74
2023/03/16 10:27:02;;;;;;;;;;;;;;;8.57;78.23535;101341.6;;;;-73
2023/03/16 10:32:03;;;;;;;;;;;;;;;8.7;77.83984;101354;;;;-74
2023/03/16 10:34:23;;;;;;;5.1;2.3;;;;;;;;;;;;;-75
2023/03/16 10:37:01;;;;;;;;;;;;;;;8.84;76.61914;101339;;;;-76
2023/03/16 10:42:03;;;;;;;;;;;;;;;8.99;76.37988;101329.3;;;;-75
2023/03/16 10:47:07;;;;;;;;;;;;;;;9.05;76.62305;101313.7;;;;-74
2023/03/16 10:52:02;;;;;;;;;;;;;;;9.14;76.21973;101311.5;;;;-74
2023/03/16 10:57:05;;;;;;;;;;;;;;;9.26;76.26172;101312.3;;;;-74
2023/03/16 11:02:01;;;;;;;;;;;;;;;9.29;76.15625;101311.9;;;;-74
2023/03/16 11:04:23;;;;;;;6.3;2.3;;;;;;;;;;;;;-74
2023/03/16 11:07:01;;;;;;;;;;;;;;;9.29;75.66113;101309.7;;;;-75
2023/03/16 11:12:03;;;;;;;;;;;;;;;9.25;75.74121;101306.2;;;;-74
2023/03/16 11:17:08;;;;;;;;;;;;;;;9.35;75.80078;101290.1;;;;-74
2023/03/16 11:22:06;;;;;;;;;;;;;;;9.28;75.47168;101295.9;;;;-75
2023/03/16 11:27:04;;;;;;;;;;;;;;;9.35;74.97266;101297;;;;-74
2023/03/16 11:32:03;;;;;;;;;;;;;;;9.35;75.48242;101286;;;;-75
2023/03/16 11:34:27;;;;;;;6.4;2.1;;;;;;;;;;;;;-74
2023/03/16 11:37:08;;;;;;;;;;;;;;;9.43;75.38477;101290.4;;;;-74
2023/03/16 11:42:03;;;;;;;;;;;;;;;9.5;75.52051;101290.1;;;;-74
2023/03/16 11:47:07;;;;;;;;;;;;;;;9.61;74.6748;101282.4;;;;-74
2023/03/16 11:52:08;;;;;;;;;;;;;;;9.57;74.98828;101282.3;;;;-75
2023/03/16 11:57:05;;;;;;;;;;;;;;;9.58;74.41797;101278.5;;;;-73
2023/03/16 12:02:12;;;;;;;;;;;;;;;9.65;75.08105;101271.4;;;;-74
2023/03/16 12:04:37;;;;;;;6;2;;;;;;;;;;;;;-74
2023/03/16 12:07:10;;;;;;;;;;;;;;;9.7;74.30469;101273.2;;;;-74
2023/03/16 12:12:04;;;;;;;;;;;;;;;9.96;73.78418;101269.1;;;;-76
2023/03/16 12:17:02;;;;;;;;;;;;;;;10.09;74.09375;101260.1;;;;-74
2023/03/16 12:22:05;;;;;;;;;;;;;;;10.17;73.41113;101261.7;;;;-74
2023/03/16 12:27:05;;;;;;;;;;;;;;;10.26;72.75977;101245.5;;;;-74
2023/03/16 12:32:04;;;;;;;;;;;;;;;10.35;72.36328;101239.7;;;;-75
2023/03/16 12:34:30;;;;;;;5;1.8;;;;;;;;;;;;;-75
2023/03/16 12:37:09;;;;;;;;;;;;;;;10.48;72.7627;101220.4;;;;-74
2023/03/16 12:42:07;;;;;;;;;;;;;;;10.59;71.27246;101208.3;;;;-75
2023/03/16 12:47:05;;;;;;;;;;;;;;;10.67;71.48633;101197.9;;;;-74
2023/03/16 12:52:07;;;;;;;;;;;;;;;10.76;70.63477;101194;;;;-73
2023/03/16 12:57:03;;;;;;;;;;;;;;;10.91;71.06934;101179.4;;;;-75
2023/03/16 13:03:43;;;;;;;;;;;;;;;11.17;70.05469;101170.7;;;;-75
2023/03/16 13:04:34;;;;;;;4.5;1.7;;;;;;;;;;;;;-73
2023/03/16 13:08:51;;;;;;;;;;;;;;;11.24;70.05664;101170.9;;;;-74
2023/03/16 13:13:51;;;;;;;;;;;;;;;11.33;70.30371;101163.8;;;;-74
2023/03/16 13:18:53;;;;;;;;;;;;;;;11.42;69.36133;101165.8;;;;-74
2023/03/16 13:23:53;;;;;;;;;;;;;;;11.52;69.22363;101179.8;;;;-75
2023/03/16 13:28:44;;;;;;;;;;;;;;;11.53;68.21191;101174.3;;;;-75
2023/03/16 13:33:43;;;;;;;;;;;;;;;11.5;67.72852;101165.8;;;;-74
2023/03/16 13:34:34;;;;;;;5.2;1.7;;;;;;;;;;;;;-75
2023/03/16 13:38:42;;;;;;;;;;;;;;;11.56;68.26074;101160.2;;;;-73
2023/03/16 13:43:42;;;;;;;;;;;;;;;11.55;68.39355;101153.7;;;;-75
2023/03/16 13:52:42;;;;;;;;;;;;;;;11.56;68.30566;101147;;;;-74
2023/03/16 13:57:39;;;;;;;;;;;;;;;11.61;66.89844;101137.5;;;;-76
2023/03/16 14:02:39;;;;;;;;;;;;;;;11.63;66.49121;101134;;;;-74
2023/03/16 14:04:34;;;;;;;3.9;1.5;;;;;;;;;;;;;-74
2023/03/16 14:07:41;;;;;;;;;;;;;;;11.61;66.09668;101125.3;;;;-74
2023/03/16 14:12:41;;;;;;;;;;;;;;;11.69;65.67285;101110.9;;;;-75
2023/03/16 14:17:38;;;;;;;;;;;;;;;11.68;66.41992;101099.8;;;;-75
2023/03/16 14:22:40;;;;;;;;;;;;;;;11.82;66.12793;101091;;;;-74
2023/03/16 14:27:46;;;;;;;;;;;;;;;11.9;66.44141;101090;;;;-75
2023/03/16 14:32:38;;;;;;;;;;;;;;;11.9;64.76953;101087.9;;;;-74
2023/03/16 14:34:38;;;;;;;3.9;1.3;;;;;;;;;;;;;-73
2023/03/16 14:37:45;;;;;;;;;;;;;;;11.97;65.56055;101073.3;;;;-74
2023/03/16 14:42:38;;;;;;;;;;;;;;;12.12;65.96191;101061.1;;;;-74
2023/03/16 14:47:43;;;;;;;;;;;;;;;12.13;64.45703;101057.8;;;;-74
2023/03/16 14:52:39;;;;;;;;;;;;;;;12.23;64.89648;101057.5;;;;-75
2023/03/16 14:57:39;;;;;;;;;;;;;;;12.31;65.58789;101048;;;;-74
2023/03/16 15:04:41;;;;;;;4.7;1.5;;;;;;;;;;;;;-74
2023/03/16 15:07:45;;;;;;;;;;;;;;;12.28;64.24609;101029.5;;;;-73
2023/03/16 15:12:39;;;;;;;;;;;;;;;12.35;63.31738;101027.5;;;;-74
2023/03/16 15:17:38;;;;;;;;;;;;;;;12.34;64.24219;101028.7;;;;-75
2023/03/16 15:22:40;;;;;;;;;;;;;;;12.36;64.25684;101031.4;;;;-74
2023/03/16 15:27:41;;;;;;;;;;;;;;;12.35;64.25684;101019.8;;;;-73
2023/03/16 15:32:38;;;;;;;;;;;;;;;12.41;63.67285;101013.6;;;;-74
2023/03/16 15:34:38;;;;;;;4.4;1.5;;;;;;;;;;;;;-74
2023/03/16 15:37:41;;;;;;;;;;;;;;;12.36;63.23047;101004.3;;;;-74
2023/03/16 15:42:38;;;;;;;;;;;;;;;12.43;63.30664;100996.3;;;;-77
2023/03/16 15:47:39;;;;;;;;;;;;;;;12.39;62.86621;101002.7;;;;-75
2023/03/16 15:52:40;;;;;;;;;;;;;;;12.42;62.43457;100987.5;;;;-76
2023/03/16 15:57:39;;;;;;;;;;;;;;;12.47;63.45898;100984.1;;;;-73
2023/03/16 16:02:38;;;;;;;;;;;;;;;12.4;62.82227;100995;;;;-75
2023/03/16 16:04:41;;;;;;;3;1.2;;;;;;;;;;;;;-74
2023/03/16 16:07:47;;;;;;;;;;;;;;;12.38;62.39453;100993.4;;;;-75
2023/03/16 16:12:38;;;;;;;;;;;;;;;12.39;61.77148;100986;;;;-75
2023/03/16 16:17:38;;;;;;;;;;;;;;;12.31;62.79688;100977.6;;;;-73
2023/03/16 16:22:38;;;;;;;;;;;;;;;12.36;62.31348;100972.7;;;;-73
2023/03/16 16:27:38;;;;;;;;;;;;;;;12.32;63.9502;100962.3;;;;-72
2023/03/16 16:32:38;;;;;;;;;;;;;;;12.26;63.69629;100960;;;;-72
2023/03/16 16:34:47;;;;;;;4.9;1.3;;;;;;;;;;;;;-73
2023/03/16 16:37:38;;;;;;;;;;;;;;;12.23;62.2168;100954.6;;;;-72
2023/03/16 16:42:40;;;;;;;;;;;;;;;12.2;63.0166;100953.4;;;;-73
2023/03/16 16:47:38;;;;;;;;;;;;;;;12.1;63.16992;100951;;;;-72
2023/03/16 16:52:38;;;;;;;;;;;;;;;12.09;63.25684;100954.9;;;;-72
2023/03/16 16:57:42;;;;;;;;;;;;;;;12.01;63.96191;100954.3;;;;-72
2023/03/16 17:02:44;;;;;;;;;;;;;;;11.93;64.12695;100957.4;;;;-73
2023/03/16 17:04:45;;;;;;;2.5;1.3;;;;;;;;;;;;;-72
2023/03/16 17:07:38;;;;;;;;;;;;;;;11.8;64.21973;100955.9;;;;-72
2023/03/16 17:12:38;;;;;;;;;;;;;;;11.7;65.01855;100960.9;;;;-75
2023/03/16 17:17:38;;;;;;;;;;;;;;;11.6;65.38281;100952;;;;-72
2023/03/16 17:22:41;;;;;;;;;;;;;;;11.47;67.16699;100961.5;;;;-74
2023/03/16 17:27:40;;;;;;;;;;;;;;;11.35;66.0459;100965;;;;-74
2023/03/16 17:32:40;;;;;;;;;;;;;;;11.21;66.5166;100957.3;;;;-75
2023/03/16 17:34:50;;;;;;;3.1;1.1;;;;;;;;;;;;;-74
2023/03/16 17:37:46;;;;;;;;;;;;;;;11.06;66.15723;100963;;;;-73
2023/03/16 17:42:41;;;;;;;;;;;;;;;10.93;68.55078;100965.6;;;;-74
2023/03/16 17:47:45;;;;;;;;;;;;;;;10.79;69.12891;100963.4;;;;-74
2023/03/16 17:52:38;;;;;;;;;;;;;;;10.64;70.9375;100976.2;;;;-73
2023/03/16 17:57:39;;;;;;;;;;;;;;;10.49;70.95703;100978.5;;;;-74
2023/03/16 18:02:50;;;;;;;;;;;;;;;10.35;71.7334;100964.8;;;;-75
2023/03/16 18:04:48;;;;;;;3.3;1.3;;;;;;;;;;;;;-74
2023/03/16 18:07:38;;;;;;;;;;;;;;;10.2;71.24219;100969.4;;;;-73
2023/03/16 18:12:39;;;;;;;;;;;;;;;10.07;72.62793;100973.7;;;;-75
2023/03/16 18:17:38;;;;;;;;;;;;;;;9.93;72.87109;100978.6;;;;-73
2023/03/16 18:22:38;;;;;;;;;;;;;;;9.77;73.1543;100969;;;;-74
2023/03/16 18:27:40;;;;;;;;;;;;;;;9.66;73.58984;100953.6;;;;-74
2023/03/16 18:32:41;;;;;;;;;;;;;;;9.53;73.23633;100920.5;;;;-74
2023/03/16 18:34:57;;;;;;;4.5;1.1;;;;;;;;;;;;;-74
2023/03/16 18:37:38;;;;;;;;;;;;;;;9.41;72.38477;100942.7;;;;-74
2023/03/16 18:42:40;;;;;;;;;;;;;;;9.34;72.57422;100946.8;;;;-74
2023/03/16 18:47:42;;;;;;;;;;;;;;;9.24;73.5957;100953.9;;;;-74
2023/03/16 18:52:43;;;;;;;;;;;;;;;9.13;72.90332;100942.8;;;;-73
2023/03/16 18:57:38;;;;;;;;;;;;;;;9.07;73.51172;100938.9;;;;-75
2023/03/16 19:02:40;;;;;;;;;;;;;;;9.02;73.30371;100933.9;;;;-73
2023/03/16 19:04:52;;;;;;;2.8;1.2;;;;;;;;;;;;;-73
2023/03/16 19:07:40;;;;;;;;;;;;;;;9;73.66699;100931.4;;;;-74
2023/03/16 19:12:38;;;;;;;;;;;;;;;8.98;72.58105;100916.5;;;;-73
2023/03/16 19:17:38;;;;;;;;;;;;;;;8.95;73.07324;100929.9;;;;-73
2023/03/16 19:22:38;;;;;;;;;;;;;;;8.91;73.75098;100916.9;;;;-74
2023/03/16 19:27:38;;;;;;;;;;;;;;;8.86;73.2998;100910;;;;-72
2023/03/16 19:32:38;;;;;;;;;;;;;;;8.81;73.2373;100898.9;;;;-74
2023/03/16 19:34:53;;;;;;;3.2;1.5;;;;;;;;;;;;;-73
2023/03/16 19:37:38;;;;;;;;;;;;;;;8.76;73.90137;100888.1;;;;-74
2023/03/16 19:42:39;;;;;;;;;;;;;;;8.72;74.37891;100890;;;;-73
2023/03/16 19:47:38;;;;;;;;;;;;;;;8.64;74.24512;100896.3;;;;-74
2023/03/16 19:52:41;;;;;;;;;;;;;;;8.55;74.4043;100894.8;;;;-74
2023/03/16 19:57:38;;;;;;;;;;;;;;;8.46;74.21387;100895.5;;;;-72
2023/03/16 20:02:40;;;;;;;;;;;;;;;8.38;74.53223;100889;;;;-73
2023/03/16 20:04:55;;;;;;;3.3;1.3;;;;;;;;;;;;;-73
2023/03/16 20:07:38;;;;;;;;;;;;;;;8.31;75.02734;100888.6;;;;-73
2023/03/16 20:12:40;;;;;;;;;;;;;;;8.24;74.79395;100887.8;;;;-76
2023/03/16 20:17:38;;;;;;;;;;;;;;;8.17;75.21191;100889.4;;;;-74
2023/03/16 20:22:38;;;;;;;;;;;;;;;8.12;75.19141;100896.6;;;;-74
2023/03/16 20:27:38;;;;;;;;;;;;;;;8.07;75.7666;100889.5;;;;-74
2023/03/16 20:32:38;;;;;;;;;;;;;;;7.96;75.7168;100881.6;;;;-74
2023/03/16 20:34:59;;;;;;;3.3;1.4;;;;;;;;;;;;;-74
2023/03/16 20:37:38;;;;;;;;;;;;;;;7.89;76.08887;100882.7;;;;-74
2023/03/16 20:42:38;;;;;;;;;;;;;;;7.81;76.11914;100872.4;;;;-74
2023/03/16 20:47:38;;;;;;;;;;;;;;;7.73;76.34863;100862.8;;;;-73
2023/03/16 20:52:38;;;;;;;;;;;;;;;7.67;75.90625;100866.5;;;;-74
2023/03/16 20:57:42;;;;;;;;;;;;;;;7.63;75.63379;100867.4;;;;-74
2023/03/16 21:02:38;;;;;;;;;;;;;;;7.59;75.87207;100869.5;;;;-74
2023/03/16 21:04:57;;;;;;;4;1.7;;;;;;;;;;;;;-74
2023/03/16 21:07:38;;;;;;;;;;;;;;;7.55;75.99707;100876.5;;;;-73
2023/03/16 21:12:40;;;;;;;;;;;;;;;7.53;75.60742;100874.8;;;;-75
2023/03/16 21:17:40;;;;;;;;;;;;;;;7.47;76.10352;100856.3;;;;-74
2023/03/16 21:22:38;;;;;;;;;;;;;;;7.45;76.20898;100851.9;;;;-75
2023/03/16 21:27:38;;;;;;;;;;;;;;;7.41;76.45605;100856.5;;;;-73
2023/03/16 21:32:38;;;;;;;;;;;;;;;7.38;76.35156;100843.5;;;;-73
2023/03/16 21:35:03;;;;;;;3.8;1.7;;;;;;;;;;;;;-74
2023/03/16 21:37:38;;;;;;;;;;;;;;;7.34;76.58594;100857.8;;;;-75
2023/03/16 21:42:38;;;;;;;;;;;;;;;7.34;76.2666;100866.4;;;;-74
2023/03/16 21:47:38;;;;;;;;;;;;;;;7.3;76.62305;100865.3;;;;-74
2023/03/16 21:52:44;;;;;;;;;;;;;;;7.3;76.2168;100845.9;;;;-73
2023/03/16 21:57:38;;;;;;;;;;;;;;;7.29;76.43457;100842.2;;;;-74
2023/03/16 22:02:38;;;;;;;;;;;;;;;7.28;76.37695;100845.8;;;;-73
2023/03/16 22:05:00;;;;;;;5;1.9;;;;;;;;;;;;;-74
2023/03/16 22:07:38;;;;;;;;;;;;;;;7.26;76.66992;100855.4;;;;-74
2023/03/16 22:12:38;;;;;;;;;;;;;;;7.25;76.70117;100843.9;;;;-74
2023/03/16 22:17:39;;;;;;;;;;;;;;;7.22;76.92773;100832.7;;;;-74
2023/03/16 22:22:38;;;;;;;;;;;;;;;7.19;76.88965;100832;;;;-74
2023/03/16 22:27:38;;;;;;;;;;;;;;;7.17;77.09375;100815.9;;;;-75
2023/03/16 22:32:38;;;;;;;;;;;;;;;7.17;76.96191;100809.9;;;;-75
2023/03/16 22:35:02;;;;;;;5.6;2;;;;;;;;;;;;;-74
2023/03/16 22:37:38;;;;;;;;;;;;;;;7.18;77.10645;100831.8;;;;-74
2023/03/16 22:42:40;;;;;;;;;;;;;;;7.18;77.18359;100846.2;;;;-74
2023/03/16 22:47:40;;;;;;;;;;;;;;;7.2;77.29688;100847.2;;;;-74
2023/03/16 22:52:40;;;;;;;;;;;;;;;7.2;77.38574;100828.7;;;;-74
2023/03/16 22:57:38;;;;;;;;;;;;;;;7.22;77.38867;100813;;;;-74
2023/03/16 23:02:38;;;;;;;;;;;;;;;7.23;77.44531;100816.4;;;;-73
2023/03/16 23:05:02;;;;;;;4.5;2.1;;;;;;;;;;;;;-75
2023/03/16 23:07:38;;;;;;;;;;;;;;;7.26;77.30957;100811.7;;;;-73
2023/03/16 23:12:38;;;;;;;;;;;;;;;7.27;77.33105;100807.1;;;;-73
2023/03/16 23:17:38;;;;;;;;;;;;;;;7.29;77.30176;100808.2;;;;-76
2023/03/16 23:22:39;;;;;;;;;;;;;;;7.3;77.27148;100818.3;;;;-74
2023/03/16 23:27:38;;;;;;;;;;;;;;;7.31;77.31738;100816.2;;;;-74
2023/03/16 23:32:50;;;;;;;;;;;;;;;7.31;77.40527;100829.8;;;;-74
2023/03/16 23:35:02;;;;;;;5.3;2.2;;;;;;;;;;;;;-73
2023/03/16 23:37:38;;;;;;;;;;;;;;;7.35;77.26758;100826.1;;;;-74
2023/03/16 23:42:38;;;;;;;;;;;;;;;7.34;77.32227;100822.7;;;;-74
2023/03/16 23:47:38;;;;;;;;;;;;;;;7.33;77.62891;100821.3;;;;-73
2023/03/16 23:52:38;;;;;;;;;;;;;;;7.37;77.23926;100826.3;;;;-74
2023/03/16 23:57:38;;;;;;;;;;;;;;;7.38;77.31934;100825.5;;;;-74
